Time;durP1;ratioP1;P1;durP2;ratioP2;P2;SDS_P1;SDS_P2;PMS_P1;PMS_P2;Temp;Humidity;BMP_temperature;BMP_pressure;BME280_temperature;BME280_humidity;BME280_pressure;Samples;Min_cycle;Max_cycle;Signal;HPM_P1;HPM_P2
2022/03/05 00:02:08;;;;;;;39.90;22.57;;;;;;;;;;5078965;28;20207;-62
2022/03/05 00:04:33;;;;;;;41.67;22.13;;;;;;;;;;5097357;28;20266;-62
2022/03/05 00:06:59;;;;;;;43.70;25.17;;;;;;;;;;5096978;28;20199;-62
2022/03/05 00:09:25;;;;;;;41.63;24.33;;;;;;;;;;5096851;28;20173;-62
2022/03/05 00:11:51;;;;;;;44.33;23.73;;;;;;;;;;5078652;28;20554;-62
2022/03/05 00:14:18;;;;;;;43.40;24.00;;;;;;;;;;5078473;28;20185;-62
2022/03/05 00:16:43;;;;;;;43.13;24.17;;;;;;;;;;5096662;28;20476;-62
2022/03/05 00:19:10;;;;;;;47.33;24.13;;;;;;;;;;5097163;28;20407;-62
2022/03/05 00:21:36;;;;;;;41.27;24.03;;;;;;;;;;5096468;28;20204;-62
2022/03/05 00:24:02;;;;;;;43.00;23.93;;;;;;;;;;5096622;28;20455;-62
2022/03/05 00:26:28;;;;;;;36.37;21.67;;;;;;;;;;5096633;28;20547;-62
2022/03/05 00:28:54;;;;;;;42.60;23.77;;;;;;;;;;5078666;28;20425;-62
2022/03/05 00:31:20;;;;;;;41.37;23.17;;;;;;;;;;5078245;28;20548;-62
2022/03/05 00:33:46;;;;;;;36.87;23.00;;;;;;;;;;5096386;28;20183;-62
2022/03/05 00:36:12;;;;;;;42.57;24.23;;;;;;;;;;5096346;28;20506;-63
2022/03/05 00:38:38;;;;;;;43.10;24.07;;;;;;;;;;5096084;28;20226;-63
2022/03/05 00:41:04;;;;;;;43.40;24.70;;;;;;;;;;5096483;28;20497;-62
2022/03/05 00:43:30;;;;;;;43.67;25.07;;;;;;;;;;5096574;28;20599;-63
2022/03/05 00:45:56;;;;;;;43.20;24.07;;;;;;;;;;5096407;28;20234;-62
2022/03/05 00:48:22;;;;;;;42.10;23.90;;;;;;;;;;5077949;28;20181;-62
2022/03/05 00:50:48;;;;;;;41.80;24.47;;;;;;;;;;5096259;28;20176;-62
2022/03/05 00:53:17;;;;;;;42.77;24.33;;;;;;;;;;5096398;28;20201;-62
2022/03/05 00:55:43;;;;;;;44.47;23.43;;;;;;;;;;5077922;28;20795;-63
2022/03/05 00:58:09;;;;;;;44.43;23.93;;;;;;;;;;5077883;28;20414;-63
2022/03/05 01:00:35;;;;;;;51.30;25.77;;;;;;;;;;5095577;28;20199;-62
2022/03/05 01:03:01;;;;;;;44.37;23.70;;;;;;;;;;5096098;28;20552;-62
2022/03/05 01:05:27;;;;;;;43.60;23.77;;;;;;;;;;5077532;28;20465;-62
2022/03/05 01:07:53;;;;;;;48.70;25.37;;;;;;;;;;5077429;28;20411;-62
2022/03/05 01:10:19;;;;;;;50.33;26.20;;;;;;;;;;5096337;28;20490;-64
2022/03/05 01:12:45;;;;;;;47.03;24.87;;;;;;;;;;5095724;28;20462;-63
2022/03/05 01:15:11;;;;;;;46.03;24.93;;;;;;;;;;5095768;28;20177;-63
2022/03/05 01:17:37;;;;;;;40.20;24.43;;;;;;;;;;5096352;28;20234;-63
2022/03/05 01:20:04;;;;;;;46.43;25.53;;;;;;;;;;5077548;28;20533;-63
2022/03/05 01:22:30;;;;;;;45.47;24.63;;;;;;;;;;5077524;28;20530;-63
2022/03/05 01:24:56;;;;;;;49.23;24.93;;;;;;;;;;5077557;28;20559;-63
2022/03/05 01:27:22;;;;;;;50.93;26.43;;;;;;;;;;5095780;28;20180;-63
2022/03/05 01:29:48;;;;;;;42.13;24.83;;;;;;;;;;5095513;28;20403;-63
2022/03/05 01:32:14;;;;;;;47.57;24.40;;;;;;;;;;5094529;28;20462;-63
2022/03/05 01:34:40;;;;;;;38.87;24.77;;;;;;;;;;5095232;28;20498;-62
2022/03/05 01:37:06;;;;;;;47.13;24.37;;;;;;;;;;5095194;28;20407;-62
2022/03/05 01:39:32;;;;;;;46.00;25.63;;;;;;;;;;5095738;28;20578;-63
2022/03/05 01:41:58;;;;;;;43.93;26.87;;;;;;;;;;5095138;28;20571;-65
2022/03/05 01:44:24;;;;;;;49.20;24.93;;;;;;;;;;5095127;28;20251;-62
2022/03/05 01:46:51;;;;;;;51.57;25.97;;;;;;;;;;5095112;28;20172;-63
2022/03/05 01:49:17;;;;;;;52.10;26.30;;;;;;;;;;5076564;28;20443;-63
2022/03/05 01:51:43;;;;;;;49.80;27.33;;;;;;;;;;5076697;28;20428;-63
2022/03/05 01:54:09;;;;;;;49.17;25.70;;;;;;;;;;5095176;28;20179;-63
2022/03/05 01:56:36;;;;;;;47.10;25.13;;;;;;;;;;5095155;28;20783;-63
2022/03/05 01:59:02;;;;;;;51.03;26.30;;;;;;;;;;5094900;28;20839;-63
2022/03/05 02:01:28;;;;;;;45.57;23.90;;;;;;;;;;5094645;28;20808;-63
2022/03/05 02:04:00;;;;;;;47.10;25.13;;;;;;;;;;5094696;28;20562;-63
2022/03/05 02:06:26;;;;;;;46.20;25.70;;;;;;;;;;5094675;28;20469;-63
2022/03/05 02:08:52;;;;;;;49.03;27.10;;;;;;;;;;5094807;28;20415;-62
2022/03/05 02:11:18;;;;;;;48.37;26.57;;;;;;;;;;5076959;28;20488;-63
2022/03/05 02:13:44;;;;;;;49.20;26.87;;;;;;;;;;5095269;28;20679;-63
2022/03/05 02:16:10;;;;;;;46.47;26.23;;;;;;;;;;5077566;28;20213;-63
2022/03/05 02:18:37;;;;;;;51.60;26.60;;;;;;;;;;5095663;28;20405;-63
2022/03/05 02:21:03;;;;;;;45.93;26.60;;;;;;;;;;5077159;28;20427;-63
2022/03/05 02:23:29;;;;;;;48.47;26.23;;;;;;;;;;5094586;28;20900;-63
2022/03/05 02:25:55;;;;;;;52.33;27.77;;;;;;;;;;5094481;28;20479;-63
2022/03/05 02:28:22;;;;;;;46.97;25.57;;;;;;;;;;5094288;28;20197;-62
2022/03/05 02:30:48;;;;;;;51.67;26.27;;;;;;;;;;5076993;28;20498;-62
2022/03/05 02:33:15;;;;;;;48.23;27.53;;;;;;;;;;5095117;28;20411;-63
2022/03/05 02:35:43;;;;;;;45.87;25.60;;;;;;;;;;5076237;28;20422;-63
2022/03/05 02:38:09;;;;;;;43.53;25.43;;;;;;;;;;5094625;28;20413;-63
2022/03/05 02:40:35;;;;;;;53.67;26.97;;;;;;;;;;5076210;28;20410;-63
2022/03/05 02:43:01;;;;;;;46.27;25.13;;;;;;;;;;5094534;28;20408;-63
2022/03/05 02:45:27;;;;;;;53.50;28.53;;;;;;;;;;5094913;28;20197;-62
2022/03/05 02:47:53;;;;;;;45.67;25.90;;;;;;;;;;5094088;28;20422;-62
2022/03/05 02:50:19;;;;;;;49.57;26.17;;;;;;;;;;5094144;28;20192;-63
2022/03/05 02:52:45;;;;;;;47.03;25.17;;;;;;;;;;5094523;28;20187;-63
2022/03/05 02:55:11;;;;;;;45.07;25.47;;;;;;;;;;5094412;28;20184;-63
2022/03/05 02:57:37;;;;;;;50.33;27.10;;;;;;;;;;5094318;28;20259;-62
2022/03/05 03:00:04;;;;;;;50.43;27.57;;;;;;;;;;5094084;28;20435;-62
2022/03/05 03:02:30;;;;;;;51.40;26.03;;;;;;;;;;5075862;28;20461;-63
2022/03/05 03:04:56;;;;;;;52.00;27.40;;;;;;;;;;5094299;28;20459;-63
2022/03/05 03:07:22;;;;;;;56.63;25.50;;;;;;;;;;5093632;28;20407;-62
2022/03/05 03:09:48;;;;;;;50.97;27.67;;;;;;;;;;5094262;28;20200;-62
2022/03/05 03:12:14;;;;;;;50.67;25.47;;;;;;;;;;5093668;28;20665;-62
2022/03/05 03:14:40;;;;;;;50.73;25.30;;;;;;;;;;5094951;28;20184;-63
2022/03/05 03:17:06;;;;;;;48.50;24.47;;;;;;;;;;5096389;28;20181;-63
2022/03/05 03:19:32;;;;;;;53.77;27.37;;;;;;;;;;5096575;28;20187;-63
2022/03/05 03:21:57;;;;;;;51.87;27.53;;;;;;;;;;5097682;28;20250;-63
2022/03/05 03:24:23;;;;;;;52.40;27.07;;;;;;;;;;5097855;28;20284;-63
2022/03/05 03:26:49;;;;;;;44.17;25.40;;;;;;;;;;5076943;28;20201;-62
2022/03/05 03:29:15;;;;;;;53.23;26.00;;;;;;;;;;5094142;28;20177;-63
2022/03/05 03:31:41;;;;;;;50.40;26.10;;;;;;;;;;5075056;28;20707;-63
2022/03/05 03:34:07;;;;;;;46.40;25.57;;;;;;;;;;5093037;28;20446;-63
2022/03/05 03:36:33;;;;;;;43.13;23.17;;;;;;;;;;5074959;28;20210;-61
2022/03/05 03:38:59;;;;;;;47.83;25.67;;;;;;;;;;5093177;28;20190;-63
2022/03/05 03:41:25;;;;;;;44.57;24.73;;;;;;;;;;5093111;28;20605;-63
2022/03/05 03:43:51;;;;;;;55.00;27.90;;;;;;;;;;5074984;28;20181;-63
2022/03/05 03:46:17;;;;;;;56.27;26.90;;;;;;;;;;5093166;28;20173;-63
2022/03/05 03:48:43;;;;;;;54.40;26.17;;;;;;;;;;5093286;28;20203;-63
2022/03/05 03:51:09;;;;;;;44.37;24.20;;;;;;;;;;5092963;28;20203;-63
2022/03/05 03:53:35;;;;;;;46.93;25.30;;;;;;;;;;5093144;28;20695;-63
2022/03/05 03:56:01;;;;;;;47.13;26.73;;;;;;;;;;5096002;28;20559;-63
2022/03/05 03:58:27;;;;;;;48.83;26.23;;;;;;;;;;5078643;28;20615;-63
2022/03/05 04:00:53;;;;;;;49.77;26.17;;;;;;;;;;5096599;28;20450;-63
2022/03/05 04:03:19;;;;;;;46.50;24.23;;;;;;;;;;5096633;28;20184;-63
2022/03/05 04:05:45;;;;;;;49.37;25.40;;;;;;;;;;5096697;28;20213;-63
2022/03/05 04:10:56;;;;;;;49.73;26.17;;;;;;;;;;5097122;28;20477;-63
2022/03/05 04:13:22;;;;;;;48.30;25.63;;;;;;;;;;5096397;28;20891;-63
2022/03/05 04:15:48;;;;;;;49.77;26.07;;;;;;;;;;5096559;28;20173;-63
2022/03/05 04:18:13;;;;;;;54.83;25.77;;;;;;;;;;5096337;28;20180;-63
2022/03/05 04:20:39;;;;;;;54.17;25.23;;;;;;;;;;5077971;28;20184;-63
2022/03/05 04:23:05;;;;;;;42.70;24.17;;;;;;;;;;5078041;28;20217;-63
2022/03/05 04:25:31;;;;;;;49.63;24.43;;;;;;;;;;5096278;28;20725;-63
2022/03/05 04:27:57;;;;;;;50.07;25.63;;;;;;;;;;5078007;28;20905;-63
2022/03/05 04:30:23;;;;;;;51.83;25.80;;;;;;;;;;5096029;28;20405;-63
2022/03/05 04:32:49;;;;;;;54.90;25.40;;;;;;;;;;5095874;28;20217;-62
2022/03/05 04:35:16;;;;;;;45.27;24.37;;;;;;;;;;5078481;28;20419;-63
2022/03/05 04:37:42;;;;;;;50.70;24.37;;;;;;;;;;5096454;28;20207;-63
2022/03/05 04:40:08;;;;;;;52.03;24.30;;;;;;;;;;5078530;28;20423;-63
2022/03/05 04:42:34;;;;;;;45.20;23.80;;;;;;;;;;5078219;28;20467;-63
2022/03/05 04:45:02;;;;;;;48.20;26.00;;;;;;;;;;5077532;28;20495;-63
2022/03/05 04:47:28;;;;;;;49.37;25.27;;;;;;;;;;5119245;22;20704;-61
2022/03/05 04:49:53;;;;;;;44.53;24.27;;;;;;;;;;5094364;28;20454;-63
2022/03/05 04:52:19;;;;;;;46.93;25.17;;;;;;;;;;5077051;28;20706;-63
2022/03/05 04:54:45;;;;;;;51.20;25.07;;;;;;;;;;5095187;28;20203;-63
2022/03/05 04:57:11;;;;;;;50.40;24.97;;;;;;;;;;5095089;28;20188;-63
2022/03/05 04:59:37;;;;;;;52.80;25.00;;;;;;;;;;5096091;28;20302;-63
2022/03/05 05:02:03;;;;;;;48.40;25.47;;;;;;;;;;5077266;28;20518;-63
2022/03/05 05:04:29;;;;;;;49.17;25.13;;;;;;;;;;5076822;28;20213;-63
2022/03/05 05:06:56;;;;;;;43.27;23.00;;;;;;;;;;5075685;28;20422;-63
2022/03/05 05:09:22;;;;;;;48.87;23.10;;;;;;;;;;5076958;28;20203;-63
2022/03/05 05:11:48;;;;;;;46.97;24.07;;;;;;;;;;5094911;28;20765;-63
2022/03/05 05:14:14;;;;;;;45.93;24.17;;;;;;;;;;5076843;28;20602;-64
2022/03/05 05:16:40;;;;;;;49.23;25.27;;;;;;;;;;5095101;28;20239;-63
2022/03/05 05:21:50;;;;;;;48.97;25.40;;;;;;;;;;5095300;28;20654;-64
2022/03/05 05:24:16;;;;;;;46.87;24.30;;;;;;;;;;5094557;28;20978;-63
2022/03/05 05:26:42;;;;;;;48.50;23.73;;;;;;;;;;5094473;28;20490;-63
2022/03/05 05:29:08;;;;;;;44.43;23.23;;;;;;;;;;5094479;28;20455;-63
2022/03/05 05:31:34;;;;;;;46.47;24.67;;;;;;;;;;5076363;28;20258;-63
2022/03/05 05:34:00;;;;;;;49.73;24.87;;;;;;;;;;5094456;28;20238;-63
2022/03/05 05:36:26;;;;;;;51.50;25.30;;;;;;;;;;5094262;28;20181;-63
2022/03/05 05:38:52;;;;;;;49.77;25.23;;;;;;;;;;5094514;28;20201;-63
2022/03/05 05:41:18;;;;;;;49.73;25.90;;;;;;;;;;5094309;28;20426;-64
2022/03/05 05:43:44;;;;;;;49.37;25.00;;;;;;;;;;5094131;28;20188;-63
2022/03/05 05:46:11;;;;;;;49.97;24.57;;;;;;;;;;5094231;28;20411;-63
2022/03/05 05:48:37;;;;;;;45.33;24.13;;;;;;;;;;5093895;28;20478;-63
2022/03/05 05:51:04;;;;;;;48.53;24.87;;;;;;;;;;5075957;28;20443;-63
2022/03/05 05:53:30;;;;;;;52.27;24.00;;;;;;;;;;5094043;28;20406;-63
2022/03/05 05:55:56;;;;;;;50.00;24.80;;;;;;;;;;5094033;28;20497;-63
2022/03/05 05:58:22;;;;;;;49.40;25.77;;;;;;;;;;5094067;28;20439;-64
2022/03/05 06:00:49;;;;;;;48.00;24.93;;;;;;;;;;5094219;28;20421;-63
2022/03/05 06:03:15;;;;;;;42.73;23.47;;;;;;;;;;5075837;28;20429;-63
2022/03/05 06:05:41;;;;;;;51.50;25.80;;;;;;;;;;5075611;28;20462;-63
2022/03/05 06:08:07;;;;;;;46.20;25.83;;;;;;;;;;5075615;28;20427;-63
2022/03/05 06:10:33;;;;;;;48.93;24.17;;;;;;;;;;5094097;28;20577;-63
2022/03/05 06:12:59;;;;;;;48.20;24.73;;;;;;;;;;5075674;28;20173;-63
2022/03/05 06:15:25;;;;;;;49.33;24.73;;;;;;;;;;5093720;28;20434;-63
2022/03/05 06:17:54;;;;;;;51.67;24.83;;;;;;;;;;5093302;28;20200;-63
2022/03/05 06:20:20;;;;;;;46.73;24.83;;;;;;;;;;5075771;28;20189;-63
2022/03/05 06:22:46;;;;;;;52.13;25.73;;;;;;;;;;5075473;28;20937;-63
2022/03/05 06:25:12;;;;;;;48.50;24.50;;;;;;;;;;5093476;28;21037;-63
2022/03/05 06:27:38;;;;;;;53.27;25.30;;;;;;;;;;5093277;28;20407;-63
2022/03/05 06:30:04;;;;;;;53.97;25.57;;;;;;;;;;5075545;28;20937;-63
2022/03/05 06:32:31;;;;;;;51.90;25.63;;;;;;;;;;5075500;28;20183;-63
2022/03/05 06:34:57;;;;;;;52.37;26.60;;;;;;;;;;5093339;28;20411;-63
2022/03/05 06:37:23;;;;;;;53.93;25.77;;;;;;;;;;5093952;28;20410;-62
2022/03/05 06:39:49;;;;;;;50.47;26.60;;;;;;;;;;5075692;28;20786;-63
2022/03/05 06:42:15;;;;;;;59.53;27.03;;;;;;;;;;5093382;28;20509;-63
2022/03/05 06:44:41;;;;;;;58.83;27.93;;;;;;;;;;5093288;28;20550;-63
2022/03/05 06:47:08;;;;;;;56.30;28.07;;;;;;;;;;5093262;28;20170;-63
2022/03/05 06:49:34;;;;;;;53.33;26.37;;;;;;;;;;5075015;28;20509;-63
2022/03/05 06:52:00;;;;;;;54.70;27.17;;;;;;;;;;5093503;28;20410;-63
2022/03/05 06:54:26;;;;;;;57.43;27.33;;;;;;;;;;5075105;28;20415;-63
2022/03/05 06:56:52;;;;;;;58.90;27.90;;;;;;;;;;5093230;28;20433;-63
2022/03/05 06:59:18;;;;;;;55.43;27.17;;;;;;;;;;5093197;28;20201;-63
2022/03/05 07:01:44;;;;;;;49.83;26.90;;;;;;;;;;5074991;28;20422;-63
2022/03/05 07:04:10;;;;;;;55.00;26.17;;;;;;;;;;5093097;28;20463;-64
2022/03/05 07:06:37;;;;;;;51.47;27.73;;;;;;;;;;5074988;28;20182;-63
2022/03/05 07:09:04;;;;;;;64.03;28.73;;;;;;;;;;5093035;28;20911;-63
2022/03/05 07:11:30;;;;;;;65.03;29.67;;;;;;;;;;5093304;28;20422;-63
2022/03/05 07:13:56;;;;;;;54.80;29.23;;;;;;;;;;5074969;28;20494;-63
2022/03/05 07:16:22;;;;;;;53.70;28.67;;;;;;;;;;5093235;28;20407;-62
2022/03/05 07:18:48;;;;;;;54.60;27.33;;;;;;;;;;5074790;28;20806;-63
2022/03/05 07:21:14;;;;;;;52.40;26.50;;;;;;;;;;5092953;28;20561;-63
2022/03/05 07:23:40;;;;;;;48.83;25.17;;;;;;;;;;5074835;28;20528;-63
2022/03/05 07:26:06;;;;;;;49.43;25.37;;;;;;;;;;5093037;28;20416;-63
2022/03/05 07:28:32;;;;;;;50.27;24.43;;;;;;;;;;5074910;28;20431;-63
2022/03/05 07:30:58;;;;;;;47.43;24.33;;;;;;;;;;5095633;28;20761;-62
2022/03/05 07:33:26;;;;;;;45.77;23.63;;;;;;;;;;5097132;28;20181;-62
2022/03/05 07:35:52;;;;;;;46.23;23.43;;;;;;;;;;5096928;28;20311;-62
2022/03/05 07:38:18;;;;;;;44.40;21.30;;;;;;;;;;5096806;28;20434;-62
2022/03/05 07:40:43;;;;;;;39.93;19.43;;;;;;;;;;5097086;28;20411;-62
2022/03/05 07:43:12;;;;;;;36.20;19.10;;;;;;;;;;5078575;28;20188;-62
2022/03/05 07:45:38;;;;;;;29.43;16.33;;;;;;;;;;5096655;28;20197;-62
2022/03/05 07:48:04;;;;;;;30.67;17.20;;;;;;;;;;5096265;28;20243;-62
2022/03/05 07:50:30;;;;;;;30.00;17.00;;;;;;;;;;5096514;28;20161;-62
2022/03/05 07:52:56;;;;;;;29.73;17.00;;;;;;;;;;5096809;28;20252;-62
2022/03/05 07:55:22;;;;;;;31.00;17.00;;;;;;;;;;5078247;28;20189;-63
2022/03/05 07:57:48;;;;;;;33.53;16.90;;;;;;;;;;5096425;28;20280;-62
2022/03/05 08:00:14;;;;;;;27.70;15.23;;;;;;;;;;5096522;28;20271;-63
2022/03/05 08:02:41;;;;;;;31.07;16.07;;;;;;;;;;5078330;28;20187;-63
2022/03/05 08:05:07;;;;;;;28.03;16.07;;;;;;;;;;5096164;28;20201;-63
2022/03/05 08:07:33;;;;;;;29.20;16.37;;;;;;;;;;5096514;28;20182;-63
2022/03/05 08:09:59;;;;;;;29.73;17.47;;;;;;;;;;5096501;28;20184;-62
2022/03/05 08:12:25;;;;;;;32.80;17.73;;;;;;;;;;5096124;28;20201;-63
2022/03/05 08:14:51;;;;;;;25.90;14.70;;;;;;;;;;5077918;28;20234;-63
2022/03/05 08:17:17;;;;;;;31.10;16.23;;;;;;;;;;5078020;28;20671;-63
2022/03/05 08:19:43;;;;;;;28.87;16.73;;;;;;;;;;5095906;28;20205;-63
2022/03/05 08:22:09;;;;;;;26.87;16.23;;;;;;;;;;5077870;28;20188;-62
2022/03/05 08:24:35;;;;;;;28.37;16.27;;;;;;;;;;5096524;28;20207;-62
2022/03/05 08:27:01;;;;;;;29.73;16.03;;;;;;;;;;5077703;28;20779;-63
2022/03/05 08:29:27;;;;;;;30.27;16.70;;;;;;;;;;5095710;28;20200;-62
2022/03/05 08:31:53;;;;;;;32.30;17.07;;;;;;;;;;5077578;28;20216;-63
2022/03/05 08:34:19;;;;;;;30.73;17.07;;;;;;;;;;5077605;28;20177;-62
2022/03/05 08:36:47;;;;;;;23.27;14.97;;;;;;;;;;5095820;28;20174;-62
2022/03/05 08:39:13;;;;;;;32.37;16.97;;;;;;;;;;5077450;28;20223;-62
2022/03/05 08:41:39;;;;;;;30.17;16.10;;;;;;;;;;5077628;28;20185;-62
2022/03/05 08:44:05;;;;;;;31.67;16.77;;;;;;;;;;5077885;28;20216;-63
2022/03/05 08:46:31;;;;;;;27.80;15.73;;;;;;;;;;5077413;28;20177;-62
2022/03/05 08:48:57;;;;;;;27.23;15.33;;;;;;;;;;5077163;28;20675;-62
2022/03/05 08:51:23;;;;;;;31.17;14.80;;;;;;;;;;5095515;28;20169;-62
2022/03/05 08:53:49;;;;;;;30.87;17.40;;;;;;;;;;5095601;28;20656;-62
2022/03/05 08:56:15;;;;;;;31.00;17.93;;;;;;;;;;5077499;28;20207;-62
2022/03/05 08:58:41;;;;;;;31.73;17.67;;;;;;;;;;5095413;28;20717;-62
2022/03/05 09:01:07;;;;;;;27.20;16.83;;;;;;;;;;5077305;28;20176;-62
2022/03/05 09:03:34;;;;;;;28.67;16.77;;;;;;;;;;5095630;28;20177;-63
2022/03/05 09:06:00;;;;;;;27.40;14.63;;;;;;;;;;5077188;28;20204;-62
2022/03/05 09:08:26;;;;;;;30.07;16.20;;;;;;;;;;5076932;28;20200;-62
2022/03/05 09:10:52;;;;;;;27.93;15.03;;;;;;;;;;5076833;28;20173;-62
2022/03/05 09:13:18;;;;;;;26.07;15.47;;;;;;;;;;5095206;28;20604;-62
2022/03/05 09:15:44;;;;;;;27.23;14.90;;;;;;;;;;5095279;28;20185;-60
2022/03/05 09:18:11;;;;;;;27.80;15.70;;;;;;;;;;5094738;28;20280;-64
2022/03/05 09:20:37;;;;;;;26.87;15.57;;;;;;;;;;5094743;28;20173;-61
2022/03/05 09:23:03;;;;;;;27.20;15.80;;;;;;;;;;5095305;28;20540;-61
2022/03/05 09:25:29;;;;;;;28.67;15.43;;;;;;;;;;5095083;28;20197;-63
2022/03/05 09:27:55;;;;;;;26.40;15.40;;;;;;;;;;5094535;28;20296;-62
2022/03/05 09:30:21;;;;;;;25.53;15.83;;;;;;;;;;5095054;28;20177;-63
2022/03/05 09:32:47;;;;;;;30.10;15.83;;;;;;;;;;5076209;28;20181;-63
2022/03/05 09:35:13;;;;;;;27.93;15.83;;;;;;;;;;5094538;28;20180;-63
2022/03/05 09:37:39;;;;;;;31.80;17.80;;;;;;;;;;5094263;28;20177;-62
2022/03/05 09:40:06;;;;;;;28.53;15.33;;;;;;;;;;5094353;28;20177;-63
2022/03/05 09:42:32;;;;;;;35.00;15.87;;;;;;;;;;5076131;28;20186;-63
2022/03/05 09:44:58;;;;;;;25.47;15.37;;;;;;;;;;5094343;28;20212;-63
2022/03/05 09:47:26;;;;;;;28.83;15.40;;;;;;;;;;5075863;28;20181;-61
2022/03/05 09:49:53;;;;;;;27.73;15.50;;;;;;;;;;5094098;28;20607;-62
2022/03/05 09:52:20;;;;;;;31.40;15.50;;;;;;;;;;5075461;28;20184;-63
2022/03/05 09:54:46;;;;;;;26.90;15.47;;;;;;;;;;5094022;28;20180;-63
2022/03/05 09:57:13;;;;;;;30.93;15.20;;;;;;;;;;5094063;28;20260;-62
2022/03/05 09:59:39;;;;;;;25.43;15.60;;;;;;;;;;5094033;28;20277;-61
2022/03/05 10:02:05;;;;;;;28.43;16.60;;;;;;;;;;5094273;28;20685;-64
2022/03/05 10:04:32;;;;;;;24.37;15.27;;;;;;;;;;5075750;28;20247;-62
2022/03/05 10:07:10;;;;;;;32.30;16.40;;;;;;;;;;5093937;28;20572;-62
2022/03/05 10:09:36;;;;;;;28.43;16.60;;;;;;;;;;5075638;28;20242;-62
2022/03/05 10:12:02;;;;;;;25.17;15.40;;;;;;;;;;5094036;28;20180;-62
2022/03/05 10:14:28;;;;;;;28.80;15.37;;;;;;;;;;5093888;28;20554;-61
2022/03/05 10:17:00;;;;;;;26.27;15.47;;;;;;;;;;5093567;28;20185;-62
2022/03/05 10:19:27;;;;;;;25.27;15.03;;;;;;;;;;5075355;28;20200;-62
2022/03/05 10:22:00;;;;;;;28.87;17.63;;;;;;;;;;5093649;28;20248;-62
2022/03/05 10:24:32;;;;;;;26.80;15.57;;;;;;;;;;5093530;28;20619;-62
2022/03/05 10:26:58;;;;;;;29.93;15.73;;;;;;;;;;5093606;28;20226;-62
2022/03/05 10:29:25;;;;;;;25.60;14.67;;;;;;;;;;5093330;28;20224;-61
2022/03/05 10:32:01;;;;;;;26.23;16.10;;;;;;;;;;5093925;28;20176;-62
2022/03/05 10:34:27;;;;;;;22.20;15.30;;;;;;;;;;5093732;28;20201;-62
2022/03/05 10:36:57;;;;;;;25.17;14.67;;;;;;;;;;5075476;28;20184;-62
2022/03/05 10:39:27;;;;;;;24.77;14.80;;;;;;;;;;5093644;28;20210;-62
2022/03/05 10:41:54;;;;;;;24.87;14.33;;;;;;;;;;5093291;28;20206;-62
2022/03/05 10:44:21;;;;;;;26.20;15.37;;;;;;;;;;5075120;28;20681;-62
2022/03/05 10:46:48;;;;;;;24.50;15.03;;;;;;;;;;5093218;28;20571;-60
2022/03/05 10:49:22;;;;;;;27.17;16.17;;;;;;;;;;5093064;28;20692;-62
2022/03/05 10:51:48;;;;;;;26.40;14.60;;;;;;;;;;5093520;28;20231;-61
2022/03/05 10:54:43;;;;;;;24.20;14.40;;;;;;;;;;5107524;22;20315;-66
2022/03/05 10:57:21;;;;;;;23.43;12.57;;;;;;;;;;5053121;28;20190;-66
2022/03/05 10:59:51;;;;;;;26.83;15.20;;;;;;;;;;5053306;28;20262;-66
2022/03/05 11:02:18;;;;;;;25.77;14.63;;;;;;;;;;5035003;28;20269;-66
2022/03/05 11:04:44;;;;;;;26.37;14.77;;;;;;;;;;5055472;28;20688;-66
2022/03/05 11:07:11;;;;;;;28.53;14.63;;;;;;;;;;5057640;28;20528;-66
2022/03/05 11:09:38;;;;;;;27.90;13.97;;;;;;;;;;5056980;28;20254;-66
2022/03/05 11:12:04;;;;;;;25.23;14.70;;;;;;;;;;5055559;28;20178;-66
2022/03/05 11:14:30;;;;;;;22.83;13.17;;;;;;;;;;5056746;28;20187;-66
2022/03/05 11:16:57;;;;;;;26.43;15.20;;;;;;;;;;5056836;28;20266;-66
2022/03/05 11:19:23;;;;;;;22.87;13.63;;;;;;;;;;5056685;28;20550;-66
2022/03/05 11:21:49;;;;;;;32.30;15.70;;;;;;;;;;5056912;28;20638;-66
2022/03/05 11:24:18;;;;;;;24.57;15.63;;;;;;;;;;5056441;28;20224;-66
2022/03/05 11:26:46;;;;;;;25.07;14.73;;;;;;;;;;5056591;28;20175;-66
2022/03/05 11:29:15;;;;;;;22.33;14.30;;;;;;;;;;5056506;28;20262;-66
2022/03/05 11:31:41;;;;;;;24.30;13.37;;;;;;;;;;5056588;28;20316;-66
2022/03/05 11:34:11;;;;;;;22.93;12.67;;;;;;;;;;5055040;28;20277;-66
2022/03/05 11:36:38;;;;;;;26.90;14.37;;;;;;;;;;5056389;28;20178;-66
2022/03/05 11:39:07;;;;;;;23.20;14.80;;;;;;;;;;5056966;28;20182;-66
2022/03/05 11:41:33;;;;;;;21.90;12.33;;;;;;;;;;5056631;28;20186;-66
2022/03/05 11:44:19;;;;;;;20.13;13.20;;;;;;;;;;5056092;28;20647;-66
2022/03/05 11:46:46;;;;;;;23.73;14.37;;;;;;;;;;5056683;28;20198;-66
2022/03/05 11:49:16;;;;;;;28.20;15.63;;;;;;;;;;5056219;28;20170;-64
2022/03/05 11:52:11;;;;;;;24.23;14.97;;;;;;;;;;5056376;28;20167;-66
2022/03/05 11:54:37;;;;;;;23.87;14.43;;;;;;;;;;5025511;28;20714;-65
2022/03/05 11:57:11;;;;;;;23.20;14.10;;;;;;;;;;5056296;28;20213;-65
2022/03/05 11:59:41;;;;;;;21.63;12.60;;;;;;;;;;5056347;28;20166;-67
2022/03/05 12:02:07;;;;;;;25.13;14.57;;;;;;;;;;5056049;28;20187;-65
2022/03/05 12:04:34;;;;;;;24.27;13.83;;;;;;;;;;5055563;28;20210;-65
2022/03/05 12:07:04;;;;;;;23.20;14.33;;;;;;;;;;5056165;28;20175;-65
2022/03/05 12:09:37;;;;;;;25.53;14.33;;;;;;;;;;5055943;28;20253;-65
2022/03/05 12:12:04;;;;;;;21.37;13.37;;;;;;;;;;5054492;28;20269;-65
2022/03/05 12:14:49;;;;;;;19.77;12.37;;;;;;;;;;5054930;28;20210;-65
2022/03/05 12:17:20;;;;;;;21.57;13.07;;;;;;;;;;5055293;28;20174;-65
2022/03/05 12:19:46;;;;;;;22.03;14.17;;;;;;;;;;5055709;28;20166;-65
2022/03/05 12:22:15;;;;;;;24.13;14.30;;;;;;;;;;5055516;28;20224;-65
2022/03/05 12:24:41;;;;;;;26.20;14.57;;;;;;;;;;5055338;28;20618;-65
2022/03/05 12:27:13;;;;;;;28.37;15.17;;;;;;;;;;5055406;28;20182;-65
2022/03/05 12:29:46;;;;;;;27.07;16.13;;;;;;;;;;5054154;28;20554;-65
2022/03/05 12:32:14;;;;;;;25.07;14.67;;;;;;;;;;5055867;28;20174;-65
2022/03/05 12:34:39;;;;;;;20.70;13.53;;;;;;;;;;5055661;28;20202;-64
2022/03/05 12:37:05;;;;;;;23.40;13.40;;;;;;;;;;5055907;28;20186;-65
2022/03/05 12:39:31;;;;;;;21.07;13.93;;;;;;;;;;5056201;28;20185;-65
2022/03/05 12:41:57;;;;;;;27.33;14.87;;;;;;;;;;5057022;28;20236;-65
2022/03/05 12:44:23;;;;;;;27.37;14.07;;;;;;;;;;5057227;28;20210;-65
2022/03/05 12:46:49;;;;;;;24.13;13.17;;;;;;;;;;5055876;28;20185;-65
2022/03/05 12:49:16;;;;;;;21.43;13.10;;;;;;;;;;5055844;28;20642;-65
2022/03/05 12:51:42;;;;;;;19.87;12.30;;;;;;;;;;5054224;28;20265;-65
2022/03/05 12:54:08;;;;;;;19.67;12.47;;;;;;;;;;5054995;28;20647;-65
2022/03/05 12:56:35;;;;;;;23.87;15.03;;;;;;;;;;5056577;28;20221;-65
2022/03/05 12:59:01;;;;;;;16.57;12.03;;;;;;;;;;5056192;28;20604;-65
2022/03/05 13:01:28;;;;;;;20.73;13.47;;;;;;;;;;5056109;28;20669;-65
2022/03/05 13:03:55;;;;;;;24.73;12.80;;;;;;;;;;5053971;28;20528;-65
2022/03/05 13:06:21;;;;;;;22.70;13.63;;;;;;;;;;5055045;28;20229;-65
2022/03/05 13:08:47;;;;;;;21.03;13.50;;;;;;;;;;5054645;28;20186;-65
2022/03/05 13:11:16;;;;;;;21.37;13.70;;;;;;;;;;5054900;28;20170;-65
2022/03/05 13:13:43;;;;;;;24.23;13.60;;;;;;;;;;5054867;28;20174;-65
2022/03/05 13:16:10;;;;;;;21.77;13.37;;;;;;;;;;5053199;28;20198;-65
2022/03/05 13:18:36;;;;;;;20.90;12.53;;;;;;;;;;5054793;28;20182;-65
2022/03/05 13:21:07;;;;;;;28.60;14.73;;;;;;;;;;5054505;28;20178;-65
2022/03/05 13:23:38;;;;;;;20.27;13.23;;;;;;;;;;5054610;28;20159;-65
2022/03/05 13:26:04;;;;;;;19.50;12.77;;;;;;;;;;5054128;28;20635;-65
2022/03/05 13:28:30;;;;;;;22.60;13.83;;;;;;;;;;5052018;28;20183;-65
2022/03/05 13:30:58;;;;;;;19.43;11.90;;;;;;;;;;5052859;28;20631;-65
2022/03/05 13:33:34;;;;;;;20.23;12.37;;;;;;;;;;5054542;28;20240;-65
2022/03/05 13:36:09;;;;;;;21.20;12.93;;;;;;;;;;5052728;28;20699;-65
2022/03/05 13:38:35;;;;;;;17.23;11.10;;;;;;;;;;5054360;28;20198;-65
2022/03/05 13:41:03;;;;;;;21.73;13.13;;;;;;;;;;5054295;28;20635;-65
2022/03/05 13:43:29;;;;;;;20.23;12.83;;;;;;;;;;5054000;28;20653;-65
2022/03/05 13:45:55;;;;;;;20.47;13.33;;;;;;;;;;5052545;28;20214;-65
2022/03/05 13:48:21;;;;;;;18.67;12.07;;;;;;;;;;5052574;28;20701;-65
2022/03/05 13:50:47;;;;;;;18.00;12.37;;;;;;;;;;5053962;28;20655;-65
2022/03/05 13:53:13;;;;;;;20.40;12.87;;;;;;;;;;5053755;28;20202;-65
2022/03/05 13:55:39;;;;;;;23.03;15.43;;;;;;;;;;5053851;28;20213;-65
2022/03/05 13:58:05;;;;;;;16.73;12.17;;;;;;;;;;5054040;28;20178;-65
2022/03/05 14:00:31;;;;;;;19.83;12.43;;;;;;;;;;5053653;28;20261;-65
2022/03/05 14:02:58;;;;;;;17.30;11.97;;;;;;;;;;5053543;28;20182;-65
2022/03/05 14:05:30;;;;;;;19.73;13.00;;;;;;;;;;5053323;28;20210;-65
2022/03/05 14:07:57;;;;;;;24.30;12.87;;;;;;;;;;5053811;28;20236;-65
2022/03/05 14:10:23;;;;;;;17.80;12.17;;;;;;;;;;5052181;28;20337;-65
2022/03/05 14:12:51;;;;;;;19.77;12.63;;;;;;;;;;5053509;28;20201;-65
2022/03/05 14:15:18;;;;;;;18.13;12.33;;;;;;;;;;5053370;28;20198;-65
2022/03/05 14:17:48;;;;;;;17.47;12.33;;;;;;;;;;5052139;28;20187;-66
2022/03/05 14:20:18;;;;;;;21.00;13.80;;;;;;;;;;5053660;28;20209;-65